createdAt,value
2018-10-04T00:06:02.744Z,8.20
2018-10-04T00:08:31.774Z,8.20
2018-10-04T00:11:00.829Z,8.30
2018-10-04T00:15:58.781Z,8.30
2018-10-04T00:18:27.900Z,8.30
2018-10-04T00:23:25.920Z,8.30
2018-10-04T00:25:55.004Z,8.30
2018-10-04T00:28:24.392Z,8.30
2018-10-04T00:30:57.980Z,8.30
2018-10-04T00:35:58.693Z,8.20
2018-10-04T00:38:27.788Z,8.20
2018-10-04T00:41:01.621Z,8.10
2018-10-04T00:43:30.952Z,8.10
2018-10-04T00:51:01.550Z,8.20
2018-10-04T00:53:30.604Z,8.30
2018-10-04T00:58:28.641Z,8.60
2018-10-04T01:00:57.789Z,8.70
2018-10-04T01:05:55.732Z,8.90
2018-10-04T01:10:53.413Z,9.00
2018-10-04T01:15:52.322Z,9.00
2018-10-04T01:25:00.568Z,9.70
2018-10-04T01:27:29.620Z,10.80
2018-10-04T01:29:58.985Z,9.10
2018-10-04T01:32:31.164Z,9.20
2018-10-04T01:37:34.769Z,9.30
2018-10-04T01:42:36.988Z,9.50
2018-10-04T01:45:06.380Z,9.50
2018-10-04T01:50:16.913Z,9.60
2018-10-04T01:55:15.111Z,9.60
2018-10-04T01:57:45.119Z,9.70
2018-10-04T02:00:14.259Z,9.80
2018-10-04T02:05:16.628Z,9.90
2018-10-04T02:07:47.523Z,9.90
2018-10-04T02:12:45.455Z,9.90
2018-10-04T02:15:14.550Z,9.90
2018-10-04T02:22:34.603Z,9.90
2018-10-04T02:27:33.047Z,10.00
2018-10-04T02:30:03.579Z,10.00
2018-10-04T02:40:01.595Z,10.00
2018-10-04T02:42:30.940Z,10.00
2018-10-04T02:45:00.031Z,10.10
2018-10-04T02:55:00.392Z,10.10
2018-10-04T02:57:29.744Z,10.10
2018-10-04T02:59:58.783Z,10.10
2018-10-04T03:02:27.836Z,10.20
2018-10-04T03:04:57.328Z,10.20
2018-10-04T03:09:55.012Z,10.20
2018-10-04T03:12:26.533Z,10.20
2018-10-04T03:14:55.961Z,10.30
2018-10-04T03:17:28.407Z,9.30
2018-10-04T03:19:57.816Z,10.30
2018-10-04T03:25:08.959Z,10.40
2018-10-04T03:27:38.140Z,10.40
2018-10-04T03:32:37.137Z,10.40
2018-10-04T03:35:06.289Z,10.40
2018-10-04T03:37:39.052Z,10.40
2018-10-04T03:45:10.069Z,10.50
2018-10-04T03:47:43.247Z,10.50
2018-10-04T03:50:12.387Z,10.50
2018-10-04T03:52:44.822Z,10.60
2018-10-04T03:55:14.229Z,10.60
2018-10-04T04:00:16.716Z,10.60
2018-10-04T04:02:47.251Z,10.60
2018-10-04T04:10:13.883Z,10.70
2018-10-04T04:17:40.580Z,10.70
2018-10-04T04:22:38.266Z,10.80
2018-10-04T04:25:07.709Z,10.80
2018-10-04T04:35:20.045Z,10.90
2018-10-04T04:37:49.348Z,10.90
2018-10-04T04:45:18.408Z,10.90
2018-10-04T04:47:47.763Z,10.90
2018-10-04T04:52:48.768Z,11.00
2018-10-04T04:55:39.244Z,11.00
2018-10-04T04:58:09.557Z,11.10
2018-10-04T05:00:40.004Z,11.20
2018-10-04T05:03:09.104Z,11.10
2018-10-04T05:08:12.098Z,11.10
2018-10-04T05:20:38.975Z,11.20
2018-10-04T05:25:37.788Z,11.20
2018-10-04T05:33:05.231Z,11.20
2018-10-04T05:43:00.456Z,11.20
2018-10-04T05:45:29.952Z,11.20
2018-10-04T05:52:56.225Z,11.30
2018-10-04T05:55:25.269Z,11.40
2018-10-04T05:57:55.252Z,11.30
2018-10-04T06:00:41.641Z,11.30
2018-10-04T06:18:04.906Z,11.50
2018-10-04T06:20:36.033Z,11.60
2018-10-04T06:23:05.163Z,11.70
2018-10-04T06:28:03.229Z,11.70
2018-10-04T06:30:32.260Z,11.70
2018-10-04T06:35:31.600Z,11.60
2018-10-04T06:38:00.676Z,11.60
2018-10-04T06:45:27.476Z,11.80
2018-10-04T06:47:57.725Z,11.90
2018-10-04T06:50:27.505Z,13.30
2018-10-04T06:55:27.932Z,11.80
2018-10-04T06:57:57.115Z,11.80
2018-10-04T07:07:53.005Z,11.80
2018-10-04T07:15:19.581Z,11.80
2018-10-04T07:25:15.136Z,11.50
2018-10-04T07:32:59.155Z,11.70
2018-10-04T07:35:28.260Z,11.80
2018-10-04T07:40:26.361Z,11.90
2018-10-04T07:45:26.255Z,12.00
2018-10-04T07:52:54.893Z,12.00
2018-10-04T08:00:22.270Z,12.00
2018-10-04T08:07:49.008Z,12.60
2018-10-04T08:15:17.063Z,12.70
2018-10-04T08:22:47.141Z,13.00
2018-10-04T08:25:18.978Z,13.00
2018-10-04T08:27:48.597Z,13.20
2018-10-04T08:30:22.187Z,13.50
2018-10-04T08:32:51.281Z,13.60
2018-10-04T08:37:49.511Z,14.00
2018-10-04T08:40:18.655Z,14.00
2018-10-04T08:42:48.112Z,13.80
2018-10-04T08:47:46.287Z,13.90
2018-10-04T08:52:49.604Z,14.00
2018-10-04T08:55:23.812Z,14.10
2018-10-04T09:00:28.777Z,14.30
2018-10-04T09:03:00.476Z,14.20
2018-10-04T09:10:28.090Z,14.40
2018-10-04T09:12:57.804Z,14.60
2018-10-04T09:15:26.920Z,14.70
2018-10-04T09:22:55.424Z,14.80
2018-10-04T09:25:24.846Z,14.80
2018-10-04T09:27:58.184Z,14.90
2018-10-04T09:30:32.310Z,15.00
2018-10-04T09:33:02.816Z,15.00
2018-10-04T09:38:04.245Z,15.00
2018-10-04T09:48:11.262Z,15.40
2018-10-04T09:50:41.072Z,14.70
2018-10-04T09:53:22.932Z,15.50
2018-10-04T09:58:26.292Z,15.60
2018-10-04T10:08:27.276Z,16.00
2018-10-04T10:15:54.055Z,16.10
2018-10-04T10:20:56.570Z,16.00
2018-10-04T10:23:31.436Z,16.10
2018-10-04T10:28:34.504Z,17.70
2018-10-04T10:31:04.425Z,16.10
2018-10-04T10:38:39.965Z,16.20
2018-10-04T10:43:42.662Z,16.70
2018-10-04T10:46:11.820Z,16.40
2018-10-04T10:56:20.017Z,16.70
2018-10-04T11:03:56.558Z,16.80
2018-10-04T11:14:01.265Z,17.20
2018-10-04T11:26:36.739Z,17.20
2018-10-04T11:31:40.316Z,17.50
2018-10-04T11:36:44.811Z,17.40
2018-10-04T11:39:16.316Z,17.50
2018-10-04T11:44:23.508Z,17.70
2018-10-04T11:49:25.026Z,17.10
2018-10-04T11:51:54.164Z,16.80
2018-10-04T11:56:52.486Z,17.10
2018-10-04T12:01:55.446Z,17.20
2018-10-04T12:04:37.068Z,17.10
2018-10-04T12:12:05.199Z,16.40
2018-10-04T12:17:06.613Z,18.80
2018-10-04T12:27:12.920Z,18.00
2018-10-04T12:29:45.689Z,18.20
2018-10-04T12:39:49.458Z,18.50
2018-10-04T12:42:18.941Z,18.50
2018-10-04T12:44:54.473Z,18.60
2018-10-04T12:47:24.512Z,18.60
2018-10-04T12:54:59.665Z,18.60
2018-10-04T12:57:28.816Z,18.50
2018-10-04T13:02:30.840Z,18.40
2018-10-04T13:07:33.140Z,18.50
2018-10-04T13:12:35.834Z,18.50
2018-10-04T13:22:41.426Z,18.10
2018-10-04T13:25:19.038Z,18.40
2018-10-04T13:27:48.502Z,18.40
2018-10-04T13:35:22.007Z,18.60
2018-10-04T13:40:25.699Z,18.60
2018-10-04T13:50:29.441Z,18.60
2018-10-04T13:55:32.091Z,18.70
2018-10-04T13:58:01.456Z,18.70
2018-10-04T14:03:12.673Z,18.50
2018-10-04T14:15:44.461Z,17.70
2018-10-04T14:30:52.415Z,17.60
2018-10-04T14:33:21.765Z,17.80
2018-10-04T14:40:59.475Z,17.60
2018-10-04T14:46:01.739Z,17.50
2018-10-04T14:48:31.970Z,17.60
2018-10-04T14:51:09.046Z,17.60
2018-10-04T15:03:42.509Z,17.00
2018-10-04T15:06:15.485Z,17.00
2018-10-04T15:08:45.564Z,17.60
2018-10-04T15:11:17.288Z,17.20
2018-10-04T15:13:46.380Z,17.20
2018-10-04T15:16:28.061Z,17.30
2018-10-04T15:28:54.573Z,17.40
2018-10-04T15:33:55.719Z,17.40
2018-10-04T15:36:37.937Z,17.40
2018-10-04T15:39:08.438Z,17.40
2018-10-04T15:44:07.614Z,17.70
2018-10-04T15:46:36.865Z,16.50
2018-10-04T15:51:37.846Z,16.90
2018-10-04T15:54:09.011Z,16.50
2018-10-04T15:56:51.949Z,17.00
2018-10-04T16:01:49.919Z,16.70
2018-10-04T16:09:17.585Z,16.40
2018-10-04T16:11:49.742Z,16.40
2018-10-04T16:14:19.176Z,16.30
2018-10-04T16:16:51.858Z,16.30
2018-10-04T16:19:21.141Z,16.60
2018-10-04T16:21:54.797Z,16.30
2018-10-04T16:32:05.134Z,16.00
2018-10-04T16:37:04.243Z,16.70
2018-10-04T16:42:07.020Z,15.50
2018-10-04T16:44:36.386Z,15.50
2018-10-04T16:49:38.829Z,15.20
2018-10-04T16:52:15.136Z,15.20
2018-10-04T16:57:16.580Z,15.00
2018-10-04T16:59:45.957Z,14.80
2018-10-04T17:02:18.864Z,14.80
2018-10-04T17:04:47.952Z,14.70
2018-10-04T17:07:20.968Z,14.60
2018-10-04T17:12:31.361Z,14.40
2018-10-04T17:17:31.289Z,14.30
2018-10-04T17:20:01.512Z,14.30
2018-10-04T17:24:59.825Z,14.20
2018-10-04T17:29:59.648Z,14.10
2018-10-04T17:32:33.926Z,14.10
2018-10-04T17:35:03.482Z,14.00
2018-10-04T17:37:45.542Z,13.90
2018-10-04T17:45:12.806Z,13.70
2018-10-04T17:52:44.948Z,14.90
2018-10-04T17:55:14.021Z,13.40
2018-10-04T17:57:47.634Z,14.90
2018-10-04T18:00:17.756Z,13.30
2018-10-04T18:05:19.388Z,13.20
2018-10-04T18:07:52.564Z,13.20
2018-10-04T18:12:56.417Z,13.20
2018-10-04T18:17:59.116Z,12.80
2018-10-04T18:23:09.756Z,13.10
2018-10-04T18:33:10.159Z,13.00
2018-10-04T18:38:12.506Z,12.90
2018-10-04T18:40:41.557Z,12.80
2018-10-04T18:45:43.179Z,12.80
2018-10-04T18:48:18.971Z,14.30
2018-10-04T18:58:21.929Z,12.50
2018-10-04T19:00:51.299Z,12.30
2018-10-04T19:10:56.256Z,13.80
2018-10-04T19:15:57.602Z,11.90
2018-10-04T19:18:33.659Z,11.90
2018-10-04T19:23:35.870Z,11.80
2018-10-04T19:31:07.548Z,11.70
2018-10-04T19:33:40.199Z,11.70
2018-10-04T19:38:44.820Z,12.70
2018-10-04T19:43:46.868Z,12.10
2018-10-04T19:48:48.995Z,11.70
2018-10-04T19:58:56.950Z,11.40
2018-10-04T20:03:57.765Z,11.80
2018-10-04T20:06:29.349Z,11.70
2018-10-04T20:09:02.181Z,13.20
2018-10-04T20:11:31.294Z,11.80
2018-10-04T20:16:33.350Z,10.30
2018-10-04T20:19:06.537Z,13.40
2018-10-04T20:21:35.891Z,11.70
2018-10-04T20:24:09.259Z,11.60
2018-10-04T20:26:39.000Z,11.60
2018-10-04T20:29:13.717Z,10.10
2018-10-04T20:34:15.574Z,11.40
2018-10-04T20:39:17.829Z,11.30
2018-10-04T20:51:50.917Z,11.20
2018-10-04T20:56:54.215Z,11.20
2018-10-04T21:02:05.031Z,13.00
2018-10-04T21:12:02.156Z,10.90
2018-10-04T21:17:05.427Z,10.80
2018-10-04T21:22:17.021Z,10.70
2018-10-04T21:27:15.073Z,10.60
2018-10-04T21:37:15.191Z,10.50
2018-10-04T21:42:17.178Z,10.40
2018-10-04T21:49:54.252Z,10.30
2018-10-04T21:52:23.997Z,10.20
2018-10-04T21:54:57.408Z,10.10
2018-10-04T22:00:00.071Z,10.00
2018-10-04T22:09:59.954Z,10.20
2018-10-04T22:19:31.913Z,10.10
2018-10-04T22:34:29.815Z,10.10
2018-10-04T22:48:39.910Z,11.70
2018-10-04T22:51:09.702Z,10.60
2018-10-04T22:58:07.877Z,10.80
2018-10-04T23:00:36.965Z,11.90
2018-10-04T23:03:06.944Z,10.80
2018-10-04T23:27:30.791Z,10.60
2018-10-04T23:34:57.668Z,11.40
2018-10-04T23:37:26.717Z,10.60
2018-10-04T23:51:39.403Z,10.60
2018-10-04T23:59:09.738Z,9.50
